sensor_id;sensor_type;location;lat;lon;timestamp;temperature;humidity
1165;DHT22;571;50.930;6.926;2023-08-07T02:47:53;15.10;99.90
1165;DHT22;571;50.930;6.926;2023-08-07T02:50:19;15.10;99.90
1165;DHT22;571;50.930;6.926;2023-08-07T02:52:51;15.10;99.90
1165;DHT22;571;50.930;6.926;2023-08-07T02:55:18;15.10;99.90
1165;DHT22;571;50.930;6.926;2023-08-07T02:57:49;15.00;99.90
1165;DHT22;571;50.930;6.926;2023-08-07T03:01:13;15.00;99.90
1165;DHT22;571;50.930;6.926;2023-08-07T03:17:40;14.80;99.90
1165;DHT22;571;50.930;6.926;2023-08-07T03:27:39;14.80;99.90
1165;DHT22;571;50.930;6.926;2023-08-07T10:19:00;17.40;99.90
1165;DHT22;571;50.930;6.926;2023-08-07T10:22:01;17.50;99.40
1165;DHT22;571;50.930;6.926;2023-08-07T10:25:02;17.70;99.00
1165;DHT22;571;50.930;6.926;2023-08-07T10:28:02;17.80;98.50
1165;DHT22;571;50.930;6.926;2023-08-07T10:31:20;17.90;98.70
1165;DHT22;571;50.930;6.926;2023-08-07T10:58:09;18.60;95.90
1165;DHT22;571;50.930;6.926;2023-08-07T11:17:57;19.50;91.40
1165;DHT22;571;50.930;6.926;2023-08-07T11:41:35;21.00;87.30
1165;DHT22;571;50.930;6.926;2023-08-07T11:44:12;21.30;84.60
1165;DHT22;571;50.930;6.926;2023-08-07T11:46:56;21.40;84.20
1165;DHT22;571;50.930;6.926;2023-08-07T11:49:39;21.30;80.30
1165;DHT22;571;50.930;6.926;2023-08-07T11:52:16;21.10;80.10
1165;DHT22;571;50.930;6.926;2023-08-07T11:54:55;20.90;84.10
1165;DHT22;571;50.930;6.926;2023-08-07T12:01:04;21.20;78.50
1165;DHT22;571;50.930;6.926;2023-08-07T12:03:36;21.50;75.40
1165;DHT22;571;50.930;6.926;2023-08-07T12:06:07;21.40;78.60
1165;DHT22;571;50.930;6.926;2023-08-07T12:08:40;21.50;78.60
1165;DHT22;571;50.930;6.926;2023-08-07T12:11:14;21.70;79.90
1165;DHT22;571;50.930;6.926;2023-08-07T12:13:42;21.70;79.20
1165;DHT22;571;50.930;6.926;2023-08-07T12:16:18;21.70;72.70
1165;DHT22;571;50.930;6.926;2023-08-07T12:18:53;21.60;75.10
1165;DHT22;571;50.930;6.926;2023-08-07T12:21:21;21.70;78.60
1165;DHT22;571;50.930;6.926;2023-08-07T12:23:49;21.80;75.30
1165;DHT22;571;50.930;6.926;2023-08-07T12:26:17;21.90;71.20
1165;DHT22;571;50.930;6.926;2023-08-07T12:28:44;21.90;73.50
1165;DHT22;571;50.930;6.926;2023-08-07T12:31:13;21.90;72.70
1165;DHT22;571;50.930;6.926;2023-08-07T12:33:42;22.10;70.30
1165;DHT22;571;50.930;6.926;2023-08-07T12:36:09;22.40;68.50
1165;DHT22;571;50.930;6.926;2023-08-07T12:38:36;22.50;68.70
1165;DHT22;571;50.930;6.926;2023-08-07T12:41:02;22.50;68.20
1165;DHT22;571;50.930;6.926;2023-08-07T12:43:32;22.50;67.60
1165;DHT22;571;50.930;6.926;2023-08-07T12:45:59;22.30;67.30
1165;DHT22;571;50.930;6.926;2023-08-07T12:48:28;22.10;71.10
1165;DHT22;571;50.930;6.926;2023-08-07T12:50:55;22.20;69.00
1165;DHT22;571;50.930;6.926;2023-08-07T12:53:22;22.30;72.50
1165;DHT22;571;50.930;6.926;2023-08-07T12:55:49;22.50;72.10
1165;DHT22;571;50.930;6.926;2023-08-07T12:58:16;22.60;70.00
1165;DHT22;571;50.930;6.926;2023-08-07T13:00:44;22.60;73.00
1165;DHT22;571;50.930;6.926;2023-08-07T13:03:11;22.80;71.40
1165;DHT22;571;50.930;6.926;2023-08-07T13:05:39;23.10;76.00
1165;DHT22;571;50.930;6.926;2023-08-07T13:08:08;23.40;68.30
1165;DHT22;571;50.930;6.926;2023-08-07T13:10:43;23.50;65.20
1165;DHT22;571;50.930;6.926;2023-08-07T13:13:10;23.30;67.30
1165;DHT22;571;50.930;6.926;2023-08-07T13:15:37;23.20;64.40
1165;DHT22;571;50.930;6.926;2023-08-07T13:18:08;22.90;66.30
1165;DHT22;571;50.930;6.926;2023-08-07T13:20:40;22.70;64.50
1165;DHT22;571;50.930;6.926;2023-08-07T13:23:07;22.40;66.50
1165;DHT22;571;50.930;6.926;2023-08-07T13:25:34;22.40;66.80
1165;DHT22;571;50.930;6.926;2023-08-07T13:28:02;22.50;70.90
1165;DHT22;571;50.930;6.926;2023-08-07T13:30:41;23.00;67.60
1165;DHT22;571;50.930;6.926;2023-08-07T13:33:11;23.30;67.50
1165;DHT22;571;50.930;6.926;2023-08-07T13:35:43;23.50;67.10
1165;DHT22;571;50.930;6.926;2023-08-07T13:38:10;23.70;66.20
1165;DHT22;571;50.930;6.926;2023-08-07T13:40:41;23.70;63.30
1165;DHT22;571;50.930;6.926;2023-08-07T13:43:28;23.50;64.90
1165;DHT22;571;50.930;6.926;2023-08-07T14:01:46;23.40;64.90
1165;DHT22;571;50.930;6.926;2023-08-07T14:11:27;24.00;69.50
1165;DHT22;571;50.930;6.926;2023-08-07T14:41:08;23.50;65.70
1165;DHT22;571;50.930;6.926;2023-08-07T14:44:22;23.30;70.20
1165;DHT22;571;50.930;6.926;2023-08-07T14:56:46;24.80;67.30
1165;DHT22;571;50.930;6.926;2023-08-07T15:02:52;24.70;67.20
1165;DHT22;571;50.930;6.926;2023-08-07T15:05:32;25.30;67.60
1165;DHT22;571;50.930;6.926;2023-08-07T15:11:32;27.10;62.40
1165;DHT22;571;50.930;6.926;2023-08-07T15:14:02;27.70;58.00
1165;DHT22;571;50.930;6.926;2023-08-07T15:16:49;27.80;58.80
1165;DHT22;571;50.930;6.926;2023-08-07T15:19:46;27.40;56.40
1165;DHT22;571;50.930;6.926;2023-08-07T15:22:51;27.00;59.00
1165;DHT22;571;50.930;6.926;2023-08-07T15:25:43;26.50;60.00
1165;DHT22;571;50.930;6.926;2023-08-07T15:28:31;26.30;59.30
1165;DHT22;571;50.930;6.926;2023-08-07T15:31:14;25.70;59.40
1165;DHT22;571;50.930;6.926;2023-08-07T15:34:08;25.40;60.90
1165;DHT22;571;50.930;6.926;2023-08-07T15:36:50;24.90;60.60
1165;DHT22;571;50.930;6.926;2023-08-07T15:39:23;24.50;63.00
1165;DHT22;571;50.930;6.926;2023-08-07T15:41:50;24.10;63.80
1165;DHT22;571;50.930;6.926;2023-08-07T15:44:18;23.90;67.00
1165;DHT22;571;50.930;6.926;2023-08-07T15:46:44;23.80;66.30
1165;DHT22;571;50.930;6.926;2023-08-07T15:49:11;23.70;66.00
1165;DHT22;571;50.930;6.926;2023-08-07T15:51:38;23.50;68.20
1165;DHT22;571;50.930;6.926;2023-08-07T15:54:05;23.30;68.30
1165;DHT22;571;50.930;6.926;2023-08-07T15:56:31;23.20;68.60
1165;DHT22;571;50.930;6.926;2023-08-07T15:58:58;23.10;69.50
1165;DHT22;571;50.930;6.926;2023-08-07T16:01:26;23.20;72.10
1165;DHT22;571;50.930;6.926;2023-08-07T16:03:53;23.30;70.20
1165;DHT22;571;50.930;6.926;2023-08-07T16:06:20;23.30;69.30
1165;DHT22;571;50.930;6.926;2023-08-07T16:08:47;23.30;69.80
1165;DHT22;571;50.930;6.926;2023-08-07T16:11:13;23.20;67.80
1165;DHT22;571;50.930;6.926;2023-08-07T16:13:40;23.30;71.10
1165;DHT22;571;50.930;6.926;2023-08-07T16:16:07;23.90;69.40
1165;DHT22;571;50.930;6.926;2023-08-07T16:18:35;24.30;69.90
1165;DHT22;571;50.930;6.926;2023-08-07T16:21:06;24.90;67.10
1165;DHT22;571;50.930;6.926;2023-08-07T16:23:36;25.20;61.10
1165;DHT22;571;50.930;6.926;2023-08-07T16:26:13;25.00;62.50
1165;DHT22;571;50.930;6.926;2023-08-07T16:28:40;25.00;61.90
1165;DHT22;571;50.930;6.926;2023-08-07T16:31:07;25.30;61.50
1165;DHT22;571;50.930;6.926;2023-08-07T16:33:35;25.50;61.90
1165;DHT22;571;50.930;6.926;2023-08-07T16:36:02;25.80;59.20
1165;DHT22;571;50.930;6.926;2023-08-07T16:38:28;25.70;61.90
1165;DHT22;571;50.930;6.926;2023-08-07T16:40:55;25.70;59.10
1165;DHT22;571;50.930;6.926;2023-08-07T16:43:22;25.40;59.50
1165;DHT22;571;50.930;6.926;2023-08-07T16:45:49;25.00;59.70
1165;DHT22;571;50.930;6.926;2023-08-07T16:48:25;24.60;60.60
1165;DHT22;571;50.930;6.926;2023-08-07T16:50:53;24.20;63.70
1165;DHT22;571;50.930;6.926;2023-08-07T16:53:20;23.80;61.70
1165;DHT22;571;50.930;6.926;2023-08-07T16:55:47;23.60;65.70
1165;DHT22;571;50.930;6.926;2023-08-07T16:58:15;23.30;65.00
1165;DHT22;571;50.930;6.926;2023-08-07T17:03:24;22.90;63.90
1165;DHT22;571;50.930;6.926;2023-08-07T17:05:57;22.70;65.10
1165;DHT22;571;50.930;6.926;2023-08-07T17:08:24;22.50;65.60
1165;DHT22;571;50.930;6.926;2023-08-07T17:10:54;22.30;65.70
1165;DHT22;571;50.930;6.926;2023-08-07T17:13:21;22.20;67.40
1165;DHT22;571;50.930;6.926;2023-08-07T17:15:57;22.10;68.50
1165;DHT22;571;50.930;6.926;2023-08-07T17:18:24;22.00;67.50
1165;DHT22;571;50.930;6.926;2023-08-07T17:20:51;21.90;70.10
1165;DHT22;571;50.930;6.926;2023-08-07T17:23:22;21.80;70.00
1165;DHT22;571;50.930;6.926;2023-08-07T17:29:20;21.80;69.50
1165;DHT22;571;50.930;6.926;2023-08-07T17:31:56;21.80;69.50
1165;DHT22;571;50.930;6.926;2023-08-07T17:34:23;21.80;68.50
1165;DHT22;571;50.930;6.926;2023-08-07T17:36:53;21.80;70.90
1165;DHT22;571;50.930;6.926;2023-08-07T17:39:31;21.80;69.50
1165;DHT22;571;50.930;6.926;2023-08-07T17:42:11;21.70;69.20
1165;DHT22;571;50.930;6.926;2023-08-07T17:44:38;21.70;70.90
1165;DHT22;571;50.930;6.926;2023-08-07T17:47:05;21.60;71.50
1165;DHT22;571;50.930;6.926;2023-08-07T17:49:35;21.60;72.40
1165;DHT22;571;50.930;6.926;2023-08-07T17:52:06;21.60;71.60
1165;DHT22;571;50.930;6.926;2023-08-07T17:54:47;21.60;71.20
1165;DHT22;571;50.930;6.926;2023-08-07T17:57:29;21.50;70.70
1165;DHT22;571;50.930;6.926;2023-08-07T17:59:56;21.40;72.70
1165;DHT22;571;50.930;6.926;2023-08-07T18:02:29;21.40;73.60
1165;DHT22;571;50.930;6.926;2023-08-07T18:04:56;21.30;72.90
1165;DHT22;571;50.930;6.926;2023-08-07T18:07:37;21.30;73.20
1165;DHT22;571;50.930;6.926;2023-08-07T18:10:08;21.30;74.40
1165;DHT22;571;50.930;6.926;2023-08-07T18:12:38;21.20;74.50
1165;DHT22;571;50.930;6.926;2023-08-07T18:15:14;21.20;74.40
1165;DHT22;571;50.930;6.926;2023-08-07T18:17:42;21.20;75.70
1165;DHT22;571;50.930;6.926;2023-08-07T18:20:14;21.10;75.60
1165;DHT22;571;50.930;6.926;2023-08-07T18:36:02;20.70;79.10
1165;DHT22;571;50.930;6.926;2023-08-07T18:48:37;20.40;79.80
1165;DHT22;571;50.930;6.926;2023-08-07T20:39:35;18.30;93.40
1165;DHT22;571;50.930;6.926;2023-08-07T20:42:31;18.20;93.50
1165;DHT22;571;50.930;6.926;2023-08-07T20:45:29;18.20;93.40
1165;DHT22;571;50.930;6.926;2023-08-07T20:50:36;18.20;93.70
1165;DHT22;571;50.930;6.926;2023-08-07T20:52:19;18.20;94.10
1165;DHT22;571;50.930;6.926;2023-08-07T20:55:47;18.10;94.10
1165;DHT22;571;50.930;6.926;2023-08-07T20:59:11;18.10;94.10
1165;DHT22;571;50.930;6.926;2023-08-07T21:02:20;18.10;94.10
1165;DHT22;571;50.930;6.926;2023-08-07T21:15:43;18.10;94.50
1165;DHT22;571;50.930;6.926;2023-08-07T21:46:17;17.90;95.10
1165;DHT22;571;50.930;6.926;2023-08-07T21:49:16;17.90;95.30
1165;DHT22;571;50.930;6.926;2023-08-07T21:56:32;17.80;95.60
1165;DHT22;571;50.930;6.926;2023-08-07T21:59:22;17.80;95.70
